Time,TemperatureF,DewpointF,PressureIn,WindDirection,WindDirectionDegrees,WindSpeedMPH,WindSpeedGustMPH,Humidity,HourlyPrecipIn,Conditions,Clouds,dailyrainin,SolarRadiationWatts/m^2,SoftwareType,DateUTC
2013-04-27 00:03:00,44.0,35.0,-100.00,ESE,103,0.0,0.0,71,0.00,,,0.00,0.000000,,2013-04-27 04:03:00,
2013-04-27 00:13:00,44.0,35.0,-100.00,ESE,103,0.0,0.0,71,0.00,,,0.00,0.000000,,2013-04-27 04:13:00,
2013-04-27 00:43:00,42.0,36.0,-100.00,East,84,0.0,0.0,78,0.00,,,0.00,0.000000,,2013-04-27 04:43:00,
2013-04-27 00:53:00,42.0,36.0,-100.00,East,84,0.0,0.0,78,0.00,,,0.00,0.000000,,2013-04-27 04:53:00,
2013-04-27 01:02:00,42.0,36.0,-100.00,East,84,0.0,0.0,78,0.00,,,0.00,0.000000,,2013-04-27 05:02:00,
2013-04-27 01:12:00,42.0,36.0,-100.00,East,84,0.0,0.0,78,0.00,,,0.00,0.000000,,2013-04-27 05:12:00,
2013-04-27 01:22:00,42.0,36.0,-100.00,East,84,0.0,0.0,78,0.00,,,0.00,0.000000,,2013-04-27 05:22:00,
2013-04-27 01:42:00,41.0,35.0,-100.00,ESE,107,0.0,0.0,78,0.00,,,0.00,0.000000,,2013-04-27 05:42:00,
2013-04-27 01:52:00,41.0,35.0,-100.00,ESE,107,0.0,0.0,78,0.00,,,0.00,0.000000,,2013-04-27 05:52:00,
2013-04-27 02:02:00,41.0,35.0,-100.00,ESE,107,0.0,0.0,78,0.00,,,0.00,0.000000,,2013-04-27 06:02:00,
2013-04-27 02:12:00,41.0,35.0,-100.00,ESE,107,0.0,0.0,78,0.00,,,0.00,0.000000,,2013-04-27 06:12:00,
2013-04-27 02:22:00,41.0,35.0,-100.00,ESE,107,0.0,0.0,78,0.00,,,0.00,0.000000,,2013-04-27 06:22:00,
2013-04-27 02:42:00,40.0,38.0,-100.00,East,93,0.0,0.0,93,0.00,,,0.00,0.000000,,2013-04-27 06:42:00,
2013-04-27 02:52:00,40.0,38.0,-100.00,East,93,0.0,0.0,93,0.00,,,0.00,0.000000,,2013-04-27 06:52:00,
2013-04-27 03:02:00,40.0,38.0,-100.00,East,93,0.0,0.0,93,0.00,,,0.00,0.000000,,2013-04-27 07:02:00,
2013-04-27 03:11:00,40.0,38.0,-100.00,East,93,0.0,0.0,93,0.00,,,0.00,0.000000,,2013-04-27 07:11:00,
2013-04-27 03:21:00,40.0,38.0,-100.00,East,93,0.0,0.0,93,0.00,,,0.00,0.000000,,2013-04-27 07:21:00,
2013-04-27 03:42:00,39.0,39.0,-100.00,ESE,107,0.0,0.0,100,0.00,,,0.00,0.000000,,2013-04-27 07:42:00,
2013-04-27 03:52:00,39.0,39.0,-100.00,ESE,107,0.0,0.0,100,0.00,,,0.00,0.000000,,2013-04-27 07:52:00,
2013-04-27 04:02:00,39.0,39.0,-100.00,ESE,107,0.0,0.0,100,0.00,,,0.00,0.000000,,2013-04-27 08:02:00,
2013-04-27 04:12:00,39.0,39.0,-100.00,ESE,107,0.0,0.0,100,0.00,,,0.00,0.000000,,2013-04-27 08:12:00,
2013-04-27 04:21:00,39.0,39.0,-100.00,ESE,107,0.0,0.0,100,0.00,,,0.00,0.000000,,2013-04-27 08:21:00,
2013-04-27 04:42:00,38.0,38.0,-100.00,ESE,107,0.0,0.0,100,0.00,,,0.00,0.000000,,2013-04-27 08:42:00,
2013-04-27 04:52:00,38.0,38.0,-100.00,ESE,107,0.0,0.0,100,0.00,,,0.00,0.000000,,2013-04-27 08:52:00,
2013-04-27 05:01:00,38.0,38.0,-100.00,ESE,107,0.0,0.0,100,0.00,,,0.00,0.000000,,2013-04-27 09:01:00,
2013-04-27 05:11:00,38.0,38.0,-100.00,ESE,107,0.0,0.0,100,0.00,,,0.00,0.000000,,2013-04-27 09:11:00,
2013-04-27 05:21:00,38.0,38.0,-100.00,ESE,107,0.0,0.0,100,0.00,,,0.00,0.000000,,2013-04-27 09:21:00,
2013-04-27 05:43:00,36.0,36.0,-100.00,East,91,0.0,0.0,100,0.00,,,0.00,0.000000,,2013-04-27 09:43:00,
2013-04-27 05:53:00,36.0,36.0,-100.00,East,91,0.0,0.0,100,0.00,,,0.00,0.000000,,2013-04-27 09:53:00,
2013-04-27 06:03:00,36.0,36.0,-100.00,East,91,0.0,0.0,100,0.00,,,0.00,0.000000,,2013-04-27 10:03:00,
2013-04-27 06:12:00,36.0,36.0,-100.00,East,91,0.0,0.0,100,0.00,,,0.00,0.000000,,2013-04-27 10:12:00,
2013-04-27 06:22:00,36.0,36.0,-100.00,East,91,0.0,0.0,100,0.00,,,0.00,0.000000,,2013-04-27 10:22:00,
2013-04-27 06:42:00,36.0,36.0,-100.00,ESE,104,0.0,0.0,100,0.00,,,0.00,0.000000,,2013-04-27 10:42:00,
2013-04-27 06:52:00,36.0,36.0,-100.00,ESE,104,0.0,0.0,100,0.00,,,0.00,0.000000,,2013-04-27 10:52:00,
2013-04-27 07:02:00,36.0,36.0,-100.00,ESE,104,0.0,0.0,100,0.00,,,0.00,0.000000,,2013-04-27 11:02:00,
2013-04-27 07:12:00,36.0,36.0,-100.00,ESE,104,0.0,0.0,100,0.00,,,0.00,0.000000,,2013-04-27 11:12:00,
2013-04-27 07:22:00,36.0,36.0,-100.00,ESE,104,0.0,0.0,100,0.00,,,0.00,0.000000,,2013-04-27 11:22:00,
2013-04-27 07:42:00,36.0,36.0,-100.00,ESE,108,0.0,0.0,100,0.00,,,0.00,15.000000,,2013-04-27 11:42:00,
2013-04-27 07:52:00,36.0,36.0,-100.00,ESE,108,0.0,0.0,100,0.00,,,0.00,15.000000,,2013-04-27 11:52:00,
2013-04-27 08:02:00,36.0,36.0,-100.00,ESE,108,0.0,0.0,100,0.00,,,0.00,15.000000,,2013-04-27 12:02:00,
2013-04-27 08:11:00,36.0,36.0,-100.00,ESE,108,0.0,0.0,100,0.00,,,0.00,15.000000,,2013-04-27 12:11:00,
2013-04-27 08:22:00,36.0,36.0,-100.00,ESE,108,0.0,0.0,100,0.00,,,0.00,15.000000,,2013-04-27 12:22:00,
2013-04-27 08:42:00,42.0,42.0,-100.00,East,98,0.0,0.0,100,0.00,,,0.00,89.000000,,2013-04-27 12:42:00,
2013-04-27 08:52:00,42.0,42.0,-100.00,East,98,0.0,0.0,100,0.00,,,0.00,89.000000,,2013-04-27 12:52:00,
2013-04-27 09:02:00,42.0,42.0,-100.00,East,98,0.0,0.0,100,0.00,,,0.00,89.000000,,2013-04-27 13:02:00,
2013-04-27 09:12:00,42.0,42.0,-100.00,East,98,0.0,0.0,100,0.00,,,0.00,89.000000,,2013-04-27 13:12:00,
2013-04-27 09:21:00,42.0,42.0,-100.00,East,98,0.0,0.0,100,0.00,,,0.00,89.000000,,2013-04-27 13:21:00,
2013-04-27 09:42:00,52.0,50.0,-100.00,NW,309,1.0,3.0,92,0.00,,,0.00,317.000000,,2013-04-27 13:42:00,
2013-04-27 09:52:00,52.0,50.0,-100.00,NW,309,1.0,3.0,92,0.00,,,0.00,317.000000,,2013-04-27 13:52:00,
2013-04-27 10:02:00,52.0,50.0,-100.00,NW,309,1.0,3.0,92,0.00,,,0.00,317.000000,,2013-04-27 14:02:00,
2013-04-27 10:11:00,52.0,50.0,-100.00,NW,309,1.0,3.0,92,0.00,,,0.00,317.000000,,2013-04-27 14:11:00,
2013-04-27 10:21:00,52.0,50.0,-100.00,NW,309,1.0,3.0,92,0.00,,,0.00,317.000000,,2013-04-27 14:21:00,
2013-04-27 10:42:00,60.0,47.0,-100.00,NNE,33,2.0,4.0,62,0.00,,,0.00,482.000000,,2013-04-27 14:42:00,
2013-04-27 10:52:00,60.0,47.0,-100.00,NNE,33,2.0,4.0,62,0.00,,,0.00,482.000000,,2013-04-27 14:52:00,
2013-04-27 11:01:00,60.0,47.0,-100.00,NNE,33,2.0,4.0,62,0.00,,,0.00,482.000000,,2013-04-27 15:01:00,
2013-04-27 11:12:00,60.0,47.0,-100.00,NNE,33,2.0,4.0,62,0.00,,,0.00,482.000000,,2013-04-27 15:12:00,
2013-04-27 11:22:00,60.0,47.0,-100.00,NNE,33,2.0,4.0,62,0.00,,,0.00,482.000000,,2013-04-27 15:22:00,
2013-04-27 11:43:00,65.0,39.0,-100.00,East,88,3.0,7.0,38,0.00,,,0.00,578.000000,,2013-04-27 15:43:00,
2013-04-27 11:53:00,65.0,39.0,-100.00,East,88,3.0,7.0,38,0.00,,,0.00,578.000000,,2013-04-27 15:53:00,
2013-04-27 12:03:00,65.0,39.0,-100.00,East,88,3.0,7.0,38,0.00,,,0.00,578.000000,,2013-04-27 16:03:00,
2013-04-27 12:13:00,65.0,39.0,-100.00,East,88,3.0,7.0,38,0.00,,,0.00,578.000000,,2013-04-27 16:13:00,
2013-04-27 12:22:00,65.0,39.0,-100.00,East,88,3.0,7.0,38,0.00,,,0.00,578.000000,,2013-04-27 16:22:00,
2013-04-27 12:42:00,68.0,38.0,-100.00,NE,55,3.0,8.0,33,0.00,,,0.00,751.000000,,2013-04-27 16:42:00,
2013-04-27 12:53:00,68.0,38.0,-100.00,NE,55,3.0,8.0,33,0.00,,,0.00,751.000000,,2013-04-27 16:53:00,
2013-04-27 13:02:00,68.0,38.0,-100.00,NE,55,3.0,8.0,33,0.00,,,0.00,751.000000,,2013-04-27 17:02:00,
2013-04-27 13:12:00,68.0,38.0,-100.00,NE,55,3.0,8.0,33,0.00,,,0.00,751.000000,,2013-04-27 17:12:00,
2013-04-27 13:22:00,68.0,38.0,-100.00,NE,55,3.0,8.0,33,0.00,,,0.00,751.000000,,2013-04-27 17:22:00,
2013-04-27 13:42:00,71.0,38.0,-100.00,NNE,18,2.0,9.0,30,0.00,,,0.00,778.000000,,2013-04-27 17:42:00,
2013-04-27 13:53:00,71.0,38.0,-100.00,NNE,18,2.0,9.0,30,0.00,,,0.00,778.000000,,2013-04-27 17:53:00,
2013-04-27 14:02:00,71.0,38.0,-100.00,NNE,18,2.0,9.0,30,0.00,,,0.00,778.000000,,2013-04-27 18:02:00,
2013-04-27 14:12:00,71.0,38.0,-100.00,NNE,18,2.0,9.0,30,0.00,,,0.00,778.000000,,2013-04-27 18:12:00,
2013-04-27 14:22:00,71.0,38.0,-100.00,NNE,18,2.0,9.0,30,0.00,,,0.00,778.000000,,2013-04-27 18:22:00,
2013-04-27 14:42:00,72.0,35.0,-100.00,ENE,75,4.0,9.0,26,0.00,,,0.00,791.000000,,2013-04-27 18:42:00,
2013-04-27 14:52:00,72.0,35.0,-100.00,ENE,75,4.0,9.0,26,0.00,,,0.00,791.000000,,2013-04-27 18:52:00,
2013-04-27 15:02:00,72.0,35.0,-100.00,ENE,75,4.0,9.0,26,0.00,,,0.00,791.000000,,2013-04-27 19:02:00,
2013-04-27 15:11:00,72.0,35.0,-100.00,ENE,75,4.0,9.0,26,0.00,,,0.00,791.000000,,2013-04-27 19:11:00,
2013-04-27 15:21:00,72.0,35.0,-100.00,ENE,75,4.0,9.0,26,0.00,,,0.00,791.000000,,2013-04-27 19:21:00,
2013-04-27 15:42:00,74.0,39.0,-100.00,NNW,342,2.0,7.0,28,0.00,,,0.00,704.000000,,2013-04-27 19:42:00,
2013-04-27 15:53:00,74.0,39.0,-100.00,NNW,342,2.0,7.0,28,0.00,,,0.00,704.000000,,2013-04-27 19:53:00,
2013-04-27 16:02:00,74.0,39.0,-100.00,NNW,342,2.0,7.0,28,0.00,,,0.00,704.000000,,2013-04-27 20:02:00,
2013-04-27 16:11:00,74.0,39.0,-100.00,NNW,342,2.0,7.0,28,0.00,,,0.00,704.000000,,2013-04-27 20:11:00,
2013-04-27 16:21:00,74.0,39.0,-100.00,NNW,342,2.0,7.0,28,0.00,,,0.00,704.000000,,2013-04-27 20:21:00,
2013-04-27 16:42:00,75.0,36.0,-100.00,NE,54,3.0,9.0,24,0.00,,,0.00,693.000000,,2013-04-27 20:42:00,
2013-04-27 16:52:00,75.0,36.0,-100.00,NE,54,3.0,9.0,24,0.00,,,0.00,693.000000,,2013-04-27 20:52:00,
2013-04-27 17:02:00,75.0,36.0,-100.00,NE,54,3.0,9.0,24,0.00,,,0.00,693.000000,,2013-04-27 21:02:00,
2013-04-27 17:12:00,75.0,36.0,-100.00,NE,54,3.0,9.0,24,0.00,,,0.00,693.000000,,2013-04-27 21:12:00,
2013-04-27 17:21:00,75.0,36.0,-100.00,NE,54,3.0,9.0,24,0.00,,,0.00,693.000000,,2013-04-27 21:21:00,
2013-04-27 17:43:00,74.0,35.0,-100.00,East,89,2.0,5.0,24,0.00,,,0.00,448.000000,,2013-04-27 21:43:00,
2013-04-27 17:53:00,74.0,35.0,-100.00,East,89,2.0,5.0,24,0.00,,,0.00,448.000000,,2013-04-27 21:53:00,
2013-04-27 18:03:00,74.0,35.0,-100.00,East,89,2.0,5.0,24,0.00,,,0.00,448.000000,,2013-04-27 22:03:00,
2013-04-27 18:13:00,74.0,35.0,-100.00,East,89,2.0,5.0,24,0.00,,,0.00,448.000000,,2013-04-27 22:13:00,
2013-04-27 18:22:00,74.0,35.0,-100.00,East,89,2.0,5.0,24,0.00,,,0.00,448.000000,,2013-04-27 22:22:00,
2013-04-27 18:42:00,72.0,38.0,-100.00,ENE,78,2.0,6.0,29,0.00,,,0.00,315.000000,,2013-04-27 22:42:00,
2013-04-27 18:53:00,72.0,38.0,-100.00,ENE,78,2.0,6.0,29,0.00,,,0.00,315.000000,,2013-04-27 22:53:00,
2013-04-27 19:02:00,72.0,38.0,-100.00,ENE,78,2.0,6.0,29,0.00,,,0.00,315.000000,,2013-04-27 23:02:00,
2013-04-27 19:12:00,72.0,38.0,-100.00,ENE,78,2.0,6.0,29,0.00,,,0.00,315.000000,,2013-04-27 23:12:00,
2013-04-27 19:22:00,72.0,38.0,-100.00,ENE,78,2.0,6.0,29,0.00,,,0.00,315.000000,,2013-04-27 23:22:00,
2013-04-27 19:42:00,67.0,40.0,-100.00,ESE,106,0.0,4.0,37,0.00,,,0.00,100.000000,,2013-04-27 23:42:00,
2013-04-27 19:52:00,67.0,40.0,-100.00,ESE,106,0.0,4.0,37,0.00,,,0.00,100.000000,,2013-04-27 23:52:00,
2013-04-27 20:02:00,67.0,40.0,-100.00,ESE,106,0.0,4.0,37,0.00,,,0.00,100.000000,,2013-04-28 00:02:00,
2013-04-27 20:12:00,67.0,40.0,-100.00,ESE,106,0.0,4.0,37,0.00,,,0.00,100.000000,,2013-04-28 00:12:00,
2013-04-27 20:21:00,67.0,40.0,-100.00,ESE,106,0.0,4.0,37,0.00,,,0.00,100.000000,,2013-04-28 00:21:00,
2013-04-27 20:43:00,62.0,37.0,-100.00,ESE,112,0.0,0.0,39,0.00,,,0.00,21.000000,,2013-04-28 00:43:00,
2013-04-27 20:52:00,62.0,37.0,-100.00,ESE,112,0.0,0.0,39,0.00,,,0.00,21.000000,,2013-04-28 00:52:00,
2013-04-27 21:02:00,62.0,37.0,-100.00,ESE,112,0.0,0.0,39,0.00,,,0.00,21.000000,,2013-04-28 01:02:00,
2013-04-27 21:11:00,62.0,37.0,-100.00,ESE,112,0.0,0.0,39,0.00,,,0.00,21.000000,,2013-04-28 01:11:00,
2013-04-27 21:22:00,62.0,37.0,-100.00,ESE,112,0.0,0.0,39,0.00,,,0.00,21.000000,,2013-04-28 01:22:00,
2013-04-27 21:42:00,58.0,39.0,-100.00,ESE,110,0.0,0.0,49,0.00,,,0.00,0.000000,,2013-04-28 01:42:00,
2013-04-27 21:52:00,58.0,39.0,-100.00,ESE,110,0.0,0.0,49,0.00,,,0.00,0.000000,,2013-04-28 01:52:00,
2013-04-27 22:02:00,58.0,39.0,-100.00,ESE,110,0.0,0.0,49,0.00,,,0.00,0.000000,,2013-04-28 02:02:00,
2013-04-27 22:12:00,58.0,39.0,-100.00,ESE,110,0.0,0.0,49,0.00,,,0.00,0.000000,,2013-04-28 02:12:00,
2013-04-27 22:22:00,58.0,39.0,-100.00,ESE,110,0.0,0.0,49,0.00,,,0.00,0.000000,,2013-04-28 02:22:00,
2013-04-27 22:42:00,58.0,43.0,-100.00,ESE,111,0.0,0.0,57,0.00,,,0.00,0.000000,,2013-04-28 02:42:00,
2013-04-27 22:52:00,58.0,43.0,-100.00,ESE,111,0.0,0.0,57,0.00,,,0.00,0.000000,,2013-04-28 02:52:00,
2013-04-27 23:01:00,58.0,43.0,-100.00,ESE,111,0.0,0.0,57,0.00,,,0.00,0.000000,,2013-04-28 03:01:00,
2013-04-27 23:11:00,58.0,43.0,-100.00,ESE,111,0.0,0.0,57,0.00,,,0.00,0.000000,,2013-04-28 03:11:00,
2013-04-27 23:21:00,58.0,43.0,-100.00,ESE,111,0.0,0.0,57,0.00,,,0.00,0.000000,,2013-04-28 03:21:00,
2013-04-27 23:23:00,59.0,45.0,-100.00,ESE,106,0.0,0.0,59,0.00,,,0.00,0.000000,,2013-04-28 03:23:00,
2013-04-27 23:43:00,59.0,45.0,-100.00,ESE,106,0.0,0.0,59,0.00,,,0.00,0.000000,,2013-04-28 03:43:00,
2013-04-27 23:53:00,59.0,45.0,-100.00,ESE,106,0.0,0.0,59,0.00,,,0.00,0.000000,,2013-04-28 03:53:00,